• Join FlightAware (Why Join?)
  • Login
  • US Flag 
06:54AM EDT


 

Airport Tracker/Info


-or-


 

Live Flight TrackerFlight Track Log ✈ UAL139 ✈ 25-Oct-2013 ✈ KDEN - RJAA / NRT

Flight Track Log - Related Links

Times and Time Zones

All times are in EDT time to prevent confusion due to time zone crossing. See the UAL139 flight status page for this flight to view local times or setup timezone preferences in your user account.

Time Position Orientation Groundspeed Altitude Reporting Facility
EDT Latitude Longitude Course Direction KTS MPH feet Rate Location/Type
02:33PM 39.9040 -104.6870 351° North 193 222 5,800  Level FlightAware
02:34PM 39.9090 -104.6870 360° North 193 222 6,100 1,440 Climbing FlightAware
02:35PM 39.9730 -104.7060 347° North 260 299 7,500 1,560 Climbing FlightAware
02:35PM 40.0120 -104.7200 345° North 281 323 8,500 2,400 Climbing FlightAware
02:36PM 40.0550 -104.7360 344° North 289 333 10,100 1,980 Climbing FlightAware
02:36PM 40.0960 -104.7550 340° North 324 373 10,700 1,680 Climbing FlightAware
02:37PM 40.1560 -104.7830 340° North 349 402 12,100 2,280 Climbing FlightAware
02:38PM 40.2620 -104.8320 341° North 363 418 14,900 2,280 Climbing FlightAware
02:39PM 40.3300 -104.8640 340° North 376 433 16,400 2,100 Climbing FlightAware
02:39PM 40.3890 -104.8920 340° North 385 443 17,700 2,160 Climbing FlightAware
02:40PM 40.4400 -104.9150 341° North 391 450 18,800 2,040 Climbing FlightAware
02:40PM 40.4890 -104.9380 340° North 397 457 19,700 1,860 Climbing FlightAware
02:41PM 40.5550 -104.9690 340° North 405 466 20,900 1,920 Climbing FlightAware
02:41PM 40.6120 -104.9960 340° North 410 472 22,000 1,800 Climbing FlightAware
02:42PM 40.6942 -105.0350 340° North 422 486 23,300 1,740 Climbing FlightAware ADS-B (KANK)
02:43PM 40.7700 -105.0780 337° Northwest 422 486 24,600 1,740 Climbing FlightAware
02:43PM 40.8070 -105.1150 323° Northwest 422 486 25,300 1,620 Climbing FlightAware
02:44PM 40.9120 -105.2350 319° Northwest 433 498 27,200 1,620 Climbing FlightAware
02:45PM 40.9560 -105.2840 320° Northwest 434 499 28,000 1,440 Climbing FlightAware
02:46PM 41.0210 -105.3580 319° Northwest 438 504 29,000 1,320 Climbing FlightAware
02:47PM 41.1180 -105.4690 319° Northwest 446 513 30,300 1,080 Climbing FlightAware
02:47PM 41.1750 -105.5340 319° Northwest 454 522 30,800 720 Climbing FlightAware
02:48PM 41.2420 -105.6100 320° Northwest 465 535 31,300 840 Climbing FlightAware
02:49PM 41.3080 -105.6870 319° Northwest 471 542 32,000 960 Climbing FlightAware
02:49PM 41.3680 -105.7680 315° West 475 547 32,600 840 Climbing FlightAware
02:50PM 41.4020 -105.8210 311° West 479 551 32,900 720 Climbing FlightAware
02:51PM 41.4700 -105.9280 310° West 486 559 33,500 900 Climbing FlightAware
02:51PM 41.5280 -106.0180 311° West 487 560 34,200 1,080 Climbing FlightAware
02:52PM 41.5770 -106.0960 310° West 483 556 34,900 1,020 Climbing FlightAware
02:53PM 41.6460 -106.2050 310° West 483 556 35,600 720 Climbing FlightAware
02:53PM 41.7040 -106.2980 310° West 481 554 36,000 300 Climbing FlightAware
02:54PM 41.7490 -106.3690 310° West 481 554 36,000  Level FlightAware
02:54PM 41.7930 -106.4390 310° West 481 554 36,000  Level FlightAware
02:55PM 41.8420 -106.5170 310° West 482 555 36,000  Level FlightAware
02:56PM 41.8890 -106.5950 309° West 482 555 36,000  Level FlightAware
02:56PM 41.9170 -106.6420 309° West 482 555 36,000  Level FlightAware
02:57PM 42.0030 -106.7850 309° West 482 555 36,000  Level FlightAware
02:58PM 42.0750 -106.9040 309° West 482 555 36,000  Level FlightAware
02:59PM 42.1190 -106.9770 309° West 482 555 36,000  Level FlightAware
02:59PM 42.1620 -107.0490 309° West 482 555 36,000  Level FlightAware
03:00PM 42.2050 -107.1200 309° West 482 555 36,000  Level FlightAware
03:01PM 42.2490 -107.1940 309° West 482 555 36,000  Level FlightAware
03:01PM 42.2750 -107.2380 309° West 482 555 36,000  Level FlightAware
03:01PM 42.3160 -107.3050 310° West 482 555 36,000  Level FlightAware
03:02PM 42.3730 -107.4010 309° West 482 555 36,000  Level FlightAware
03:03PM 42.4170 -107.4750 309° West 482 555 36,000  Level FlightAware
03:03PM 42.4580 -107.5430 309° West 482 555 36,000  Level FlightAware
03:04PM 42.5290 -107.6630 309° West 482 555 36,000  Level FlightAware
03:05PM 42.5440 -107.6870 310° West 482 555 36,000  Level FlightAware
03:06PM 42.7464 -108.0031 310° West 482 555 36,000  Level Salt Lake Center
03:07PM 42.8267 -108.1386 309° West 483 556 36,000  Level Salt Lake Center
03:08PM 42.9214 -108.2992 309° West 485 558 36,000  Level Salt Lake Center
03:09PM 43.0044 -108.4428 308° West 483 556 36,000  Level Salt Lake Center
03:10PM 43.0878 -108.5850 309° West 480 552 36,000  Level Salt Lake Center
03:11PM 43.1717 -108.7286 309° West 483 556 36,000  Level Salt Lake Center
03:12PM 43.2542 -108.8711 309° West 477 549 36,000  Level Salt Lake Center
03:13PM 43.3369 -109.0161 308° West 481 554 36,000  Level Salt Lake Center
03:14PM 43.4361 -109.1892 308° West 481 554 36,000  Level Salt Lake Center
03:15PM 43.5189 -109.3333 308° West 480 552 36,000  Level Salt Lake Center
03:16PM 43.6050 -109.4875 308° West 480 552 36,000  Level Salt Lake Center
03:17PM 43.6842 -109.6253 308° West 479 551 36,000  Level Salt Lake Center
03:18PM 43.7750 -109.7875 308° West 479 551 36,000  Level Salt Lake Center
03:19PM 43.8525 -109.9250 308° West 475 547 36,000  Level Salt Lake Center
03:24PM 44.2700 -110.6840 308° West 476 548 36,000  Level FlightAware
03:25PM 44.3190 -110.7740 307° West 476 548 36,000  Level FlightAware
03:26PM 44.4281 -110.9767 307° West 473 544 36,000  Level Salt Lake Center
03:27PM 44.5167 -111.1414 307° West 476 548 36,000  Level Salt Lake Center
03:28PM 44.5914 -111.2817 307° West 475 547 36,000  Level Salt Lake Center
03:29PM 44.6764 -111.4433 307° West 474 545 36,000  Level Salt Lake Center
03:30PM 44.7500 -111.5833 307° West 472 543 36,000  Level Salt Lake Center
03:31PM 44.8364 -111.7489 306° West 473 544 36,000  Level Salt Lake Center
03:37PM 45.2540 -112.5580 306° West 474 545 36,000  Level FlightAware
03:37PM 45.2950 -112.6410 305° West 474 545 36,000  Level FlightAware
03:38PM 45.3360 -112.7250 305° West 474 545 36,000  Level FlightAware
03:39PM 45.3750 -112.8040 305° West 474 545 36,000  Level FlightAware
03:39PM 45.4130 -112.8820 305° West 474 545 36,000  Level FlightAware
03:40PM 45.5130 -113.0830 305° West 474 545 36,000  Level FlightAware
03:41PM 45.5540 -113.1690 304° West 474 545 36,000  Level FlightAware
03:42PM 45.6190 -113.2990 306° West 474 545 36,000  Level FlightAware
03:43PM 45.7050 -113.4770 305° West 473 544 36,000  Level FlightAware
03:43PM 45.7350 -113.5400 304° West 475 547 36,000  Level FlightAware
03:44PM 45.7980 -113.6720 304° West 476 548 36,000  Level FlightAware
03:45PM 45.8730 -113.8290 304° West 475 547 36,000  Level FlightAware
03:46PM 45.9370 -113.9650 304° West 475 547 36,000  Level FlightAware
03:47PM 45.9890 -114.0770 304° West 475 547 36,000  Level FlightAware
03:47PM 46.0150 -114.1320 304° West 475 547 36,000  Level FlightAware
03:48PM 46.0530 -114.2130 304° West 475 547 36,000  Level FlightAware
03:48PM 46.0910 -114.2950 304° West 475 547 36,000  Level FlightAware
03:49PM 46.1410 -114.4020 304° West 475 547 36,000  Level FlightAware
03:50PM 46.2040 -114.5370 304° West 475 547 36,000  Level FlightAware
03:51PM 46.2290 -114.5900 304° West 475 547 36,000  Level FlightAware
03:51PM 46.2670 -114.6710 304° West 475 547 36,000  Level FlightAware
03:52PM 46.3040 -114.7520 303° West 475 547 36,000  Level FlightAware
03:53PM 46.3540 -114.8590 304° West 475 547 36,000  Level FlightAware
03:53PM 46.3920 -114.9400 304° West 475 547 36,000  Level FlightAware
03:54PM 46.4300 -115.0210 304° West 475 547 36,000  Level FlightAware
03:54PM 46.4560 -115.0770 304° West 475 547 36,000 1,920 Level FlightAware
03:55PM 46.5939 -115.3875 304° West 469 540 38,000 1,200 Climbing Seattle Center
03:56PM 46.6664 -115.5444 304° West 468 539 38,000  Level Seattle Center
03:57PM 46.7364 -115.7028 303° West 467 537 38,000  Level Seattle Center
03:58PM 46.8069 -115.8625 303° West 468 539 38,000  Level Seattle Center
03:59PM 46.8775 -116.0233 303° West 472 543 38,000  Level Seattle Center
04:00PM 46.9489 -116.1836 303° West 470 541 38,000  Level Seattle Center
04:01PM 47.0200 -116.3442 303° West 471 542 38,000 -60 Level Seattle Center
04:02PM 47.0892 -116.5078 302° West 472 543 37,900  Descending Seattle Center
04:03PM 47.1600 -116.6714 303° West 474 545 38,000  Climbing Seattle Center
04:04PM 47.2297 -116.8336 302° West 470 541 37,900  Descending Seattle Center
04:05PM 47.2994 -116.9978 302° West 472 543 38,000  Climbing Seattle Center
04:06PM 47.3839 -117.1964 302° West 470 541 38,000 -60 Level Seattle Center
04:07PM 47.4397 -117.3311 302° West 472 543 37,900  Descending Seattle Center
04:08PM 47.5244 -117.5297 302° West 470 541 38,000  Climbing Seattle Center
04:13PM 47.8510 -118.3390 302° West 465 535 38,000  Level FlightAware
04:14PM 47.8990 -118.4610 300° West 466 536 38,000  Level FlightAware
04:14PM 47.9440 -118.5730 301° West 467 537 38,000  Level FlightAware
04:15PM 47.9780 -118.6610 300° West 467 537 38,000  Level FlightAware
04:16PM 48.0450 -118.8310 301° West 470 541 38,000  Level FlightAware
04:16PM 48.0700 -118.8970 300° West 470 541 38,000  Level FlightAware
04:17PM 48.1145 -119.0100 301° West 470 541 38,000  Level FlightAware ADS-B
04:18PM 48.1478 -119.0960 300° West 471 542 38,000  Level FlightAware ADS-B
04:18PM 48.1852 -119.1940 300° West 472 543 38,000  Level FlightAware ADS-B
04:19PM 48.2177 -119.2780 300° West 473 544 38,000  Level FlightAware ADS-B
04:19PM 48.2508 -119.3650 300° West 471 542 38,000  Level FlightAware ADS-B
04:20PM 48.2841 -119.4520 300° West 472 543 38,000  Level FlightAware ADS-B
04:20PM 48.3247 -119.5590 300° West 473 544 38,000  Level FlightAware ADS-B
04:21PM 48.3587 -119.6490 300° West 475 547 38,000  Level FlightAware ADS-B
04:21PM 48.3920 -119.7370 300° West 475 547 38,000  Level FlightAware ADS-B
04:22PM 48.4245 -119.8240 299° West 474 545 38,000  Level FlightAware ADS-B
04:22PM 48.4581 -119.9130 300° West 474 545 38,000  Level FlightAware ADS-B
04:23PM 48.4902 -119.9990 299° West 473 544 38,000  Level FlightAware ADS-B
04:23PM 48.4989 -120.0225 299° West 469 540 38,000  Level FlightAware ADS-B (CYWH)
04:23PM 48.5226 -120.0860 299° West 474 545 38,000  Level FlightAware ADS-B
04:23PM 48.5309 -120.1087 299° West 471 542 38,000  Level FlightAware ADS-B (CYWH)
04:24PM 48.5562 -120.1770 299° West 475 547 38,000  Level FlightAware ADS-B
04:24PM 48.5776 -120.2345 299° West 472 543 38,000  Level FlightAware ADS-B (CYWH)
04:25PM 48.6050 -120.3090 299° West 479 551 38,000  Level FlightAware ADS-B
04:25PM 48.6072 -120.3147 300° West 480 552 38,000  Level FlightAware ADS-B
04:25PM 48.6380 -120.3980 299° West 480 552 38,000  Level FlightAware ADS-B
04:25PM 48.6498 -120.4306 299° West 477 549 38,000  Level FlightAware ADS-B (CYCD)
04:26PM 48.6709 -120.4880 299° West 482 555 38,000  Level FlightAware ADS-B
04:26PM 48.6720 -120.4911 298° West 482 555 38,000  Level FlightAware ADS-B (CYCD)
04:26PM 48.7031 -120.5760 299° West 480 552 38,000  Level FlightAware ADS-B
04:26PM 48.7136 -120.6051 299° West 477 549 38,000  Level FlightAware ADS-B
04:27PM 48.7360 -120.6670 299° West 475 547 38,000  Level FlightAware ADS-B
04:27PM 48.7540 -120.7162 299° West 475 547 38,000  Level FlightAware ADS-B (CYWH)
04:27PM 48.7685 -120.7560 299° West 476 548 38,000  Level FlightAware ADS-B
04:28PM 48.7937 -120.8260 299° West 478 550 38,000  Level FlightAware ADS-B
04:28PM 48.8011 -120.8470 298° West 478 550 38,000  Level FlightAware ADS-B
04:28PM 48.8258 -120.9154 299° West 480 552 38,000  Level FlightAware ADS-B
04:28PM 48.8345 -120.9400 298° West 480 552 38,000  Level FlightAware ADS-B
04:29PM 48.8678 -121.0280 300° West 480 552 38,000  Level FlightAware ADS-B
04:29PM 48.8701 -121.0333 303° West 479 551 38,000  Level FlightAware ADS-B
04:29PM 48.9032 -121.1177 301° West 476 548 38,000  Level FlightAware ADS-B
04:29PM 48.9055 -121.1230 303° West 476 548 38,000  Level FlightAware ADS-B
04:30PM 48.9380 -121.2074 300° West 476 548 38,000  Level FlightAware ADS-B
04:30PM 48.9402 -121.2130 301° West 476 548 38,000  Level FlightAware ADS-B
04:30PM 48.9741 -121.3010 300° West 477 549 38,000  Level FlightAware ADS-B
04:31PM 48.9915 -121.3467 300° West 475 547 38,000  Level FlightAware ADS-B (CYWH)
04:31PM 49.0078 -121.3900 300° West 480 552 38,000  Level FlightAware ADS-B
04:31PM 49.0150 -121.4091 300° West 480 552 38,000  Level FlightAware ADS-B
04:31PM 49.0410 -121.4770 300° West 479 551 38,000  Level FlightAware ADS-B
04:32PM 49.0595 -121.5263 300° West 478 550 38,000  Level FlightAware ADS-B
04:32PM 49.0742 -121.5650 300° West 477 549 38,000  Level FlightAware ADS-B
04:32PM 49.0825 -121.5874 300° West 475 547 38,000  Level FlightAware ADS-B (CYCD)
04:32PM 49.1074 -121.6540 300° West 481 554 38,000  Level FlightAware ADS-B
04:32PM 49.1129 -121.6683 300° West 481 554 38,000  Level FlightAware ADS-B
04:33PM 49.1407 -121.7420 300° West 481 554 38,000  Level FlightAware ADS-B
04:33PM 49.1473 -121.7599 299° West 479 551 38,000  Level FlightAware ADS-B
04:33PM 49.1583 -121.7892 300° West 479 551 38,000  Level FlightAware ADS-B
04:33PM 49.1743 -121.8320 300° West 480 552 38,000  Level FlightAware ADS-B
04:33PM 49.1793 -121.8454 300° West 480 552 38,000  Level FlightAware ADS-B
04:34PM 49.2080 -121.9220 300° West 481 554 38,000  Level FlightAware ADS-B
04:34PM 49.2122 -121.9337 299° West 481 554 38,000  Level FlightAware ADS-B
04:34PM 49.2412 -122.0110 300° West 481 554 38,000  Level FlightAware ADS-B
04:34PM 49.2449 -122.0215 298° West 481 554 38,000  Level FlightAware ADS-B
04:35PM 49.2563 -122.0522 300° West 478 550 38,000  Level FlightAware ADS-B (CYCD)
04:35PM 49.2681 -122.0841 300° West 478 550 38,000  Level FlightAware ADS-B (CYCD)
04:35PM 49.2756 -122.1040 300° West 481 554 38,000  Level FlightAware ADS-B
04:35PM 49.3096 -122.1960 300° West 483 556 38,000  Level FlightAware ADS-B
04:35PM 49.3096 -122.1961 236° Southwest 484 557 38,000  Level FlightAware ADS-B
04:36PM 49.3439 -122.2891 300° West 486 559 38,000  Level FlightAware ADS-B
04:36PM 49.3683 -122.3557 299° West 483 556 38,000  Level FlightAware ADS-B (CYCD)
04:36PM 49.3793 -122.3857 299° West 483 556 38,000  Level FlightAware ADS-B (CYCD)
04:37PM 49.3901 -122.4152 299° West 483 556 38,000  Level FlightAware ADS-B (CYCD)
04:37PM 49.4011 -122.4452 299° West 483 556 38,000  Level FlightAware ADS-B (CYCD)
04:37PM 49.4052 -122.4570 298° West 487 560 38,000  Level FlightAware ADS-B
04:37PM 49.4116 -122.4741 300° West 483 556 38,000  Level FlightAware ADS-B (CYCD)
04:37PM 49.4243 -122.5090 299° West 483 556 38,000  Level FlightAware ADS-B (CYWH)
04:37PM 49.4458 -122.5680 299° West 487 560 38,000  Level FlightAware ADS-B
04:38PM 49.4655 -122.6222 299° West 487 560 38,000  Level FlightAware ADS-B
04:38PM 49.4808 -122.6640 299° West 487 560 38,000  Level FlightAware ADS-B
04:38PM 49.5069 -122.7364 299° West 480 552 38,000  Level FlightAware ADS-B (CYWH)
04:38PM 49.5134 -122.7540 300° West 483 556 38,000  Level FlightAware ADS-B
04:39PM 49.5188 -122.7694 298° West 479 551 38,000  Level FlightAware ADS-B (CYCD)
04:39PM 49.5298 -122.7999 299° West 477 549 38,000  Level FlightAware ADS-B (CYCD)
04:39PM 49.5409 -122.8309 299° West 477 549 38,000  Level FlightAware ADS-B (CYCD)
04:39PM 49.5459 -122.8450 299° West 480 552 38,000  Level FlightAware ADS-B
04:39PM 49.5517 -122.8608 299° West 476 548 38,000  Level FlightAware ADS-B (CYCD)
04:39PM 49.5782 -122.9350 299° West 480 552 38,000  Level FlightAware ADS-B
04:40PM 49.5872 -122.9598 299° West 477 549 38,000  Level FlightAware ADS-B (CYWH)
04:40PM 49.5996 -122.9945 299° West 481 554 38,000  Level FlightAware ADS-B
04:40PM 49.6112 -123.0270 299° West 482 555 38,000  Level FlightAware ADS-B
04:40PM 49.6313 -123.0832 299° West 482 555 38,000  Level FlightAware ADS-B
04:41PM 49.6440 -123.1190 299° West 482 555 38,000  Level FlightAware ADS-B
04:41PM 49.6725 -123.1991 299° West 485 558 38,000  Level FlightAware ADS-B
04:41PM 49.7044 -123.2892 299° West 484 557 38,000  Level FlightAware ADS-B
04:42PM 49.7379 -123.3839 299° West 486 559 38,000  Level FlightAware ADS-B
04:42PM 49.7645 -123.4596 299° West 484 557 38,000  Level FlightAware ADS-B (CYCD)
04:43PM 49.7755 -123.4908 299° West 485 558 38,000  Level FlightAware ADS-B (CYCD)
04:43PM 49.7863 -123.5214 299° West 484 557 38,000  Level FlightAware ADS-B (CYCD)
04:43PM 49.8138 -123.6005 298° West 489 563 38,000  Level FlightAware ADS-B
04:44PM 49.8449 -123.6896 298° West 490 564 38,000  Level FlightAware ADS-B
04:44PM 49.8685 -123.7574 298° West 491 565 38,000  Level FlightAware ADS-B
04:45PM 49.9167 -123.8966 298° West 491 565 38,000  Level FlightAware ADS-B
04:45PM 49.9526 -124.0008 298° West 492 566 38,000  Level FlightAware ADS-B
04:46PM 49.9932 -124.1194 298° West 491 565 38,000  Level FlightAware ADS-B
04:47PM 50.0305 -124.2287 298° West 489 563 38,000  Level FlightAware ADS-B
04:47PM 50.0745 -124.3580 298° West 488 562 38,000  Level FlightAware ADS-B (CYCD)
04:48PM 50.1126 -124.4703 298° West 485 558 38,000  Level FlightAware ADS-B
04:49PM 50.1733 -124.6505 298° West 484 557 38,000  Level FlightAware ADS-B (CYCD)
04:49PM 50.2158 -124.7697 299° West 483 556 38,000  Level FlightAware ADS-B (CYCD)
04:50PM 50.2619 -124.8817 303° West 482 555 38,000  Level FlightAware ADS-B (CYCD)
04:51PM 50.2991 -124.9717 303° West 482 555 38,000  Level FlightAware ADS-B (CYCD)
04:51PM 50.3540 -125.1044 303° West 484 557 38,000  Level FlightAware ADS-B (CYCD)
04:52PM 50.3915 -125.1954 303° West 487 560 38,000  Level FlightAware ADS-B (CYCD)
04:52PM 50.4304 -125.2902 303° West 486 559 38,000  Level FlightAware ADS-B (CYCD)
04:53PM 50.4771 -125.4046 303° West 488 562 38,000  Level FlightAware ADS-B (CYCD)
04:53PM 50.5132 -125.4934 303° West 488 562 38,000  Level FlightAware ADS-B (CYCD)
04:54PM 50.5536 -125.5932 303° West 489 563 38,000  Level FlightAware ADS-B (CYCD)
04:55PM 50.5902 -125.6836 302° West 489 563 38,000  Level FlightAware ADS-B (CYCD)
04:55PM 50.6405 -125.8089 302° West 489 563 38,000  Level FlightAware ADS-B (CYCD)
04:56PM 50.6780 -125.9026 302° West 493 567 38,000  Level FlightAware ADS-B (CYCD)
04:56PM 50.7255 -126.0217 302° West 490 564 38,000  Level FlightAware ADS-B (CYCD)
04:57PM 50.7530 -126.0900 302° West 492 566 38,000  Level FlightAware
04:58PM 50.8240 -126.2720 302° West 490 564 38,000  Level FlightAware
04:59PM 50.8880 -126.4320 302° West 490 564 38,000  Level FlightAware
05:00PM 50.9490 -126.5880 302° West 490 564 38,000  Level FlightAware
05:01PM 50.9860 -126.6810 302° West 490 564 38,000  Level FlightAware
05:01PM 51.0360 -126.8080 302° West 490 564 38,000  Level FlightAware
05:02PM 51.0610 -126.8730 301° West 490 564 38,000  Level FlightAware
05:03PM 51.1230 -127.0290 302° West 490 564 38,000  Level FlightAware
05:03PM 51.1600 -127.1260 301° West 490 564 38,000  Level FlightAware
05:04PM 51.2240 -127.2880 302° West 490 564 38,000  Level FlightAware
05:05PM 51.2490 -127.3530 302° West 490 564 38,000  Level FlightAware
05:06PM 51.3100 -127.5100 302° West 490 564 38,000  Level FlightAware
05:07PM 51.3700 -127.6610 303° West 490 564 38,000  Level FlightAware
05:08PM 51.4190 -127.7870 302° West 490 564 38,000  Level FlightAware
05:08PM 51.4310 -127.8190 301° West 490 564 38,000  Level FlightAware
05:08PM 51.5333 -128.1667 301° West 450 518 38,000  Level Vancouver Center
05:09PM 51.5833 -128.3333 296° West 450 518 38,000  Level Vancouver Center
05:10PM 51.6500 -128.5167 300° West 450 518 38,000  Level Vancouver Center
05:11PM 51.7167 -128.6833 303° West 460 529 38,000  Level Vancouver Center
05:12PM 51.7833 -128.8667 301° West 460 529 38,000  Level Vancouver Center
05:13PM 51.8500 -129.0500 301° West 460 529 38,000  Level Vancouver Center
05:14PM 51.9000 -129.2333 294° West 460 529 38,000  Level Vancouver Center
05:15PM 51.9667 -129.4167 301° West 460 529 38,000  Level Vancouver Center
05:16PM 52.0333 -129.5833 303° West 450 518 38,000  Level Vancouver Center
05:17PM 52.1000 -129.7500 303° West 450 518 38,000  Level Vancouver Center
05:18PM 52.1500 -129.9333 294° West 450 518 38,000  Level Vancouver Center
05:19PM 52.2167 -130.1167 301° West 450 518 38,000  Level Vancouver Center
05:20PM 52.2667 -130.2667 299° West 440 506 38,000  Level Vancouver Center
05:21PM 52.3333 -130.4667 299° West 440 506 38,000  Level Vancouver Center
05:22PM 52.3833 -130.6500 294° West 440 506 38,000  Level Vancouver Center
05:23PM 52.4333 -130.8167 296° West 430 495 38,000  Level Vancouver Center
05:24PM 52.5000 -130.9833 303° West 430 495 38,000  Level Vancouver Center
05:25PM 52.5500 -131.1667 294° West 440 506 38,000  Level Vancouver Center
05:26PM 52.6167 -131.3333 303° West 440 506 38,000  Level Vancouver Center
05:27PM 52.6667 -131.5167 294° West 440 506 38,000  Level Vancouver Center
05:28PM 52.7167 -131.6833 296° West 440 506 38,000  Level Vancouver Center
05:29PM 52.7833 -131.8667 301° West 440 506 38,000  Level Vancouver Center
05:30PM 52.8500 -132.0667 299° West 440 506 38,000  Level Vancouver Center
05:31PM 52.9000 -132.2500 294° West 450 518 38,000  Level Vancouver Center
05:32PM 52.9500 -132.4333 294° West 450 518 38,000  Level Vancouver Center
05:33PM 53.0167 -132.6000 304° West 450 518 38,000  Level Vancouver Center
05:34PM 53.0667 -132.7833 294° West 440 506 38,000  Level Vancouver Center
05:35PM 53.1167 -132.9833 293° West 450 518 38,000  Level Vancouver Center
05:36PM 53.1667 -133.1667 295° West 450 518 38,000  Level Vancouver Center
05:37PM 53.2333 -133.3500 301° West 450 518 38,000  Level Vancouver Center
05:38PM 53.2833 -133.5333 295° West 450 518 38,000  Level Vancouver Center
05:39PM 53.3500 -133.7167 301° West 450 518 38,000  Level Vancouver Center
05:40PM 53.4000 -133.9167 293° West 440 506 38,000  Level Vancouver Center
05:41PM 53.4500 -134.1000 295° West 440 506 38,000  Level Vancouver Center
05:42PM 53.5000 -134.2833 295° West 440 506 38,000  Level Vancouver Center
05:43PM 53.5500 -134.4667 295° West 440 506 38,000  Level Vancouver Center
05:44PM 53.6000 -134.6500 295° West 440 506 38,000  Level Vancouver Center
05:45PM 53.6500 -134.8333 295° West 450 518 38,000  Level Vancouver Center
05:46PM 53.7167 -135.0500 298° West 450 518 38,000  Level Vancouver Center
05:47PM 53.7667 -135.2333 295° West 450 518 38,000  Level Vancouver Center
05:48PM 53.8167 -135.4167 295° West 460 529 38,000  Level Vancouver Center
05:49PM 53.8667 -135.5333 306° West 460 529 38,000  Level Anchorage Center
05:50PM 53.9167 -135.7167 295° West 450 518 38,000  Level Anchorage Center
05:51PM 53.9667 -135.9333 291° West 450 518 38,000  Level Anchorage Center
05:52PM 54.0167 -136.1167 295° West 450 518 38,000  Level Anchorage Center
05:53PM 54.0833 -136.3000 302° West 450 518 38,000  Level Anchorage Center
05:54PM 54.1500 -136.4833 302° West 440 506 38,000  Level Anchorage Center
05:55PM 54.2167 -136.6667 302° West 450 518 38,000  Level Anchorage Center
05:56PM 54.2667 -136.9667 286° West 440 506 38,000  Level Vancouver Center
05:57PM 54.3333 -137.0500 324° Northwest 450 518 38,000  Level Anchorage Center
05:58PM 54.3833 -137.2333 295° West 440 506 38,000  Level Anchorage Center
05:59PM 54.4333 -137.4167 295° West 440 506 38,000  Level Anchorage Center
06:00PM 54.5000 -137.6167 300° West 440 506 38,000  Level Anchorage Center
06:01PM 54.5500 -137.8000 295° West 450 518 38,000  Level Anchorage Center
06:02PM 54.6167 -138.0000 300° West 440 506 38,000  Level Anchorage Center
06:03PM 54.6667 -138.1833 295° West 440 506 38,000  Level Anchorage Center
06:04PM 54.7333 -138.3833 300° West 450 518 38,000  Level Anchorage Center
06:05PM 54.7833 -138.5833 294° West 470 541 38,000  Level Anchorage Center
06:06PM 54.8500 -138.7833 300° West 460 529 38,000  Level Anchorage Center
06:07PM 54.9000 -138.9833 294° West 450 518 38,000  Level Anchorage Center
06:08PM 54.9500 -139.1667 295° West 440 506 38,000  Level Anchorage Center
06:09PM 55.0167 -139.3667 300° West 430 495 38,000  Level Anchorage Center
06:10PM 55.0667 -139.5667 294° West 450 518 38,000  Level Anchorage Center
06:11PM 55.1167 -139.7667 294° West 460 529 38,000  Level Anchorage Center
06:12PM 55.1833 -139.9667 300° West 450 518 38,000  Level Anchorage Center
06:13PM 55.2333 -140.1667 294° West 440 506 38,000  Level Anchorage Center
06:14PM 55.2833 -140.3667 294° West 460 529 38,000  Level Anchorage Center
06:15PM 55.3333 -140.5333 298° West 470 541 38,000  Level Anchorage Center
06:16PM 55.4000 -140.7667 297° West 450 518 38,000  Level Anchorage Center
06:17PM 55.4500 -140.9667 294° West 440 506 38,000  Level Anchorage Center
06:19PM 55.5053 -141.1833 294° West  Level FlightAware Approximate
06:19PM 55.5500 -141.3833 294° West 460 529 38,000  Level Anchorage Center
06:20PM 55.6167 -141.5833 301° West 460 529 38,000  Level Anchorage Center
06:21PM 55.6500 -141.7833 287° West 440 506 38,000  Level Anchorage Center
06:22PM 55.7167 -142.0000 299° West 460 529 38,000  Level Anchorage Center
06:23PM 55.7667 -142.2333 291° West 460 529 38,000  Level Anchorage Center
06:24PM 55.8167 -142.4333 294° West 460 529 38,000  Level Anchorage Center
06:25PM 55.8667 -142.6500 292° West 470 541 38,000  Level Anchorage Center
06:26PM 55.9333 -142.8667 299° West 460 529 38,000  Level Anchorage Center
06:27PM 55.9667 -143.0333 290° West 440 506 38,000  Level Anchorage Center
06:28PM 56.0167 -143.2500 293° West 450 518 38,000  Level Anchorage Center
06:30PM 56.0667 -143.4500 294° West 460 529 38,000  Level Anchorage Center
06:31PM 56.1167 -143.6667 293° West 450 518 38,000  Level Anchorage Center
06:32PM 56.1667 -143.8667 294° West 450 518 38,000  Level Anchorage Center
06:33PM 56.2167 -144.0833 293° West 440 506 38,000  Level Anchorage Center
06:34PM 56.2500 -144.3000 286° West 460 529 38,000  Level Anchorage Center
06:35PM 56.3000 -144.5000 294° West 440 506 38,000  Level Anchorage Center
06:36PM 56.3500 -144.7167 293° West 450 518 38,000 240 Level Anchorage Center
06:37PM 56.4000 -144.9333 293° West 460 529 38,500 540 Climbing Anchorage Center
06:38PM 56.4500 -145.1500 293° West 460 529 39,200 720 Climbing Anchorage Center
06:39PM 56.4833 -145.3667 286° West 460 529 40,000 360 Climbing Anchorage Center
06:40PM 56.5333 -145.5833 293° West 460 529 40,000  Level Anchorage Center
06:41PM 56.5833 -145.8000 293° West 460 529 40,000  Level Anchorage Center
06:42PM 56.6333 -146.0167 293° West 460 529 40,000  Level Anchorage Center
06:43PM 56.6667 -146.2500 285° West 460 529 40,000  Level Anchorage Center
06:44PM 56.7167 -146.4667 293° West 460 529 40,000  Level Anchorage Center
06:45PM 56.7667 -146.6833 293° West 460 529 40,000  Level Anchorage Center
06:46PM 56.8000 -146.9167 285° West 460 529 40,000  Level Anchorage Center
06:47PM 56.8500 -147.1333 293° West 460 529 40,000  Level Anchorage Center
06:48PM 56.9000 -147.3500 293° West 460 529 40,000  Level Anchorage Center
06:49PM 56.9333 -147.5833 285° West 460 529 40,000  Level Anchorage Center
06:50PM 56.9833 -147.8500 289° West 450 518 40,000  Level Anchorage Center
06:51PM 57.0333 -148.0667 293° West 460 529 40,000  Level Anchorage Center
06:52PM 57.0667 -148.3000 285° West 460 529 40,000  Level Anchorage Center
06:53PM 57.1167 -148.5333 292° West 470 541 40,000  Level Anchorage Center
06:54PM 57.1500 -148.7500 286° West 460 529 40,000  Level Anchorage Center
06:55PM 57.2000 -148.9833 292° West 450 518 40,000  Level Anchorage Center
06:56PM 57.2333 -149.2000 286° West 460 529 40,000  Level Anchorage Center
06:57PM 57.2667 -149.4333 285° West 460 529 40,000  Level Anchorage Center
06:58PM 57.3167 -149.6667 292° West 460 529 40,000  Level Anchorage Center
06:59PM 57.3500 -149.8833 286° West 460 529 40,000  Level Anchorage Center
07:00PM 57.3833 -150.1167 285° West 470 541 40,000  Level Anchorage Center
07:01PM 57.4333 -150.3667 290° West 470 541 40,000  Level Anchorage Center
07:02PM 57.4667 -150.5833 286° West 460 529 40,000  Level Anchorage Center
07:03PM 57.5000 -150.8167 285° West 460 529 40,000  Level Anchorage Center
07:04PM 57.5500 -151.0167 295° West 470 541 40,000  Level Anchorage Center
07:05PM 57.5833 -151.2500 285° West 470 541 40,000  Level Anchorage Center
07:06PM 57.6333 -151.5000 291° West 470 541 40,000  Level Anchorage Center
07:07PM 57.6667 -151.7333 285° West 470 541 40,000  Level Anchorage Center
07:08PM 57.7000 -151.9667 285° West 470 541 40,000  Level Anchorage Center
07:09PM 57.7500 -152.2000 292° West 470 541 40,000  Level Anchorage Center
07:10PM 57.7833 -152.4833 283° West 450 518 40,000  Level Anchorage Center
07:11PM 57.8000 -152.7333 277° West 460 529 40,000  Level Anchorage Center
07:12PM 57.8167 -152.9667 278° West 470 541 40,000  Level Anchorage Center
07:13PM 57.8333 -153.2167 277° West 460 529 40,000  Level Anchorage Center
07:14PM 57.8333 -153.4500 270° West 460 529 40,000  Level Anchorage Center
07:15PM 57.8500 -153.7000 277° West 460 529 40,000  Level Anchorage Center
07:16PM 57.8667 -153.9333 278° West 460 529 40,000  Level Anchorage Center
07:17PM 57.8833 -154.1667 278° West 450 518 40,000  Level Anchorage Center
07:19PM 57.9167 -154.6667 277° West 460 529 40,000  Level Anchorage Center
07:20PM 57.9333 -154.9000 278° West 460 529 40,000  Level Anchorage Center
07:21PM 57.9333 -155.1333 270° West 450 518 40,000  Level Anchorage Center
07:22PM 57.9500 -155.3333 279° West 460 529 40,000  Level Anchorage Center
07:23PM 57.9667 -155.6333 276° West 470 541 40,000  Level Anchorage Center
07:24PM 57.9667 -155.8667 270° West 460 529 40,000  Level Anchorage Center
07:25PM 57.9833 -156.1167 277° West 470 541 40,000  Level Anchorage Center
07:26PM 58.0000 -156.3667 277° West 460 529 40,000  Level Anchorage Center
07:27PM 58.0000 -156.6167 270° West 470 541 40,000  Level Anchorage Center
07:28PM 58.0167 -156.8667 277° West 470 541 40,000  Level Anchorage Center
07:29PM 58.0167 -157.1167 270° West 470 541 40,000  Level Anchorage Center
07:30PM 58.0333 -157.3667 277° West 470 541 40,000  Level Anchorage Center
07:31PM 58.0333 -157.6000 270° West 470 541 40,000  Level Anchorage Center
07:32PM 58.0500 -157.8500 277° West 450 518 40,000  Level Anchorage Center
07:33PM 58.0500 -158.1000 270° West 450 518 40,000  Level Anchorage Center
07:34PM 58.0667 -158.3333 278° West 460 529 40,000  Level Anchorage Center
07:35PM 58.0667 -158.5833 270° West 470 541 40,000  Level Anchorage Center
07:36PM 58.0667 -158.8333 270° West 480 552 40,000  Level Anchorage Center
07:37PM 58.0833 -159.0833 277° West 460 529 40,000  Level Anchorage Center
07:38PM 58.0833 -159.3333 270° West 460 529 40,000  Level Anchorage Center
07:39PM 58.0833 -159.5667 270° West 470 541 40,000  Level Anchorage Center
07:40PM 58.0833 -159.8167 270° West 470 541 40,000  Level Anchorage Center
07:41PM 58.1000 -160.0667 277° West 470 541 40,000  Level Anchorage Center
07:42PM 58.1000 -160.3167 270° West 470 541 40,000  Level Anchorage Center
07:43PM 58.1000 -160.5500 270° West 460 529 40,000  Level Anchorage Center
07:44PM 58.1000 -160.8167 270° West 480 552 40,000  Level Anchorage Center
07:45PM 58.1000 -161.0500 270° West 470 541 40,000  Level Anchorage Center
07:46PM 58.1000 -161.3000 270° West 470 541 40,000  Level Anchorage Center
07:48PM 58.1000 -161.8000 270° West 470 541 40,000  Level Anchorage Center
07:49PM 58.1000 -162.0500 270° West 460 529 40,000  Level Anchorage Center
07:50PM 58.1000 -162.3000 270° West 460 529 40,000  Level Anchorage Center
07:51PM 58.1000 -162.5500 270° West 460 529 40,000  Level Anchorage Center
07:52PM 58.1000 -162.8000 270° West 470 541 40,000  Level Anchorage Center
07:53PM 58.1000 -163.0333 270° West 460 529 40,000  Level Anchorage Center
07:54PM 58.0833 -163.2833 263° West 460 529 40,000  Level Anchorage Center
07:55PM 58.0833 -163.5333 270° West 450 518 40,000  Level Anchorage Center
07:56PM 58.0833 -163.7667 270° West 460 529 40,000  Level Anchorage Center
07:57PM 58.0833 -164.0167 270° West 460 529 40,000  Level Anchorage Center
07:58PM 58.0667 -164.2667 263° West 460 529 40,000  Level Anchorage Center
07:59PM 58.0667 -164.5167 270° West 460 529 40,000  Level Anchorage Center
08:00PM 58.0667 -164.7667 270° West 460 529 40,000  Level Anchorage Center
08:01PM 58.0500 -165.0000 262° West 460 529 40,000  Level Anchorage Center
08:02PM 58.0500 -165.2500 270° West 470 541 40,000  Level Anchorage Center
08:03PM 58.0333 -165.5000 263° West 460 529 40,000  Level Anchorage Center
08:04PM 58.0167 -165.7333 262° West 460 529 40,000  Level Anchorage Center
08:05PM 57.9833 -165.9833 256° West 460 529 40,000  Level Anchorage Center
08:06PM 57.9667 -166.2167 262° West 450 518 40,000  Level Anchorage Center
08:07PM 57.9500 -166.4500 262° West 460 529 40,000  Level Anchorage Center
08:08PM 57.9333 -166.7000 263° West 460 529 40,000  Level Anchorage Center
08:09PM 57.9167 -166.9500 263° West 470 541 40,000  Level Anchorage Center
08:10PM 57.8833 -167.1833 255° West 470 541 40,000  Level Anchorage Center
08:11PM 57.8667 -167.4333 263° West 470 541 40,000  Level Anchorage Center
08:12PM 57.8500 -167.6833 263° West 470 541 40,000  Level Anchorage Center
08:13PM 57.8167 -167.9167 255° West 470 541 40,000  Level Anchorage Center
08:14PM 57.8000 -168.1667 263° West 470 541 40,000  Level Anchorage Center
08:15PM 57.7667 -168.4000 255° West 470 541 40,000  Level Anchorage Center
08:16PM 57.7500 -168.6500 263° West 470 541 40,000  Level Anchorage Center
08:17PM 57.7167 -168.8833 255° West 470 541 40,000  Level Anchorage Center
08:18PM 57.7000 -169.1333 263° West 470 541 40,000  Level Anchorage Center
08:19PM 57.6667 -169.3667 255° West 470 541 40,000  Level Anchorage Center
08:20PM 57.6500 -169.6167 263° West 470 541 40,000  Level Anchorage Center
08:21PM 57.6167 -169.8500 255° West 470 541 40,000  Level Anchorage Center
08:22PM 57.6000 -170.0833 263° West 470 541 40,000  Level Anchorage Center
08:23PM 57.5667 -170.3333 256° West 470 541 40,000  Level Anchorage Center
08:24PM 57.5333 -170.5667 255° West 470 541 40,000  Level Anchorage Center
08:25PM 57.5000 -170.8000 255° West 470 541 40,000  Level Anchorage Center
08:26PM 57.4833 -171.0500 263° West 470 541 40,000  Level Anchorage Center
08:27PM 57.4500 -171.2833 255° West 470 541 40,000  Level Anchorage Center
08:28PM 57.4167 -171.5333 256° West 480 552 40,000  Level Anchorage Center
08:29PM 57.3833 -171.7667 255° West 480 552 40,000  Level Anchorage Center
08:30PM 57.3500 -172.0167 256° West 470 541 40,000  Level Anchorage Center
08:31PM 57.3167 -172.2500 255° West 480 552 40,000  Level Anchorage Center
08:32PM 57.3000 -172.5000 263° West 480 552 40,000  Level Anchorage Center
08:33PM 57.2500 -172.7333 248° West 480 552 40,000  Level Anchorage Center
08:34PM 57.2167 -172.9833 256° West 480 552 40,000  Level Anchorage Center
08:35PM 57.1833 -173.2167 255° West 480 552 40,000  Level Anchorage Center
08:36PM 57.1500 -173.4500 255° West 480 552 40,000  Level Anchorage Center
08:37PM 57.1167 -173.7000 256° West 480 552 40,000  Level Anchorage Center
08:38PM 57.0833 -173.9333 255° West 480 552 40,000  Level Anchorage Center
08:39PM 57.0500 -174.1833 256° West 490 564 40,000  Level Anchorage Center
08:40PM 57.0167 -174.4167 255° West 490 564 40,000  Level Anchorage Center
08:41PM 56.9833 -174.6667 256° West 490 564 40,000  Level Anchorage Center
08:43PM 56.9167 -175.1167 253° West 494 568 40,000  Level Anchorage Center
08:48PM 56.7167 -176.3000 253° West 490 564 40,000  Level Anchorage Center
08:50PM 56.6372 -176.7578 252° West 494 568 40,000  Level FlightAware Transoceanic
08:51PM 56.5969 -176.9859 252° West 494 568 40,000  Level FlightAware Transoceanic
08:52PM 56.5561 -177.2136 252° West 494 568 40,000  Level FlightAware Transoceanic
08:53PM 56.5149 -177.4408 252° West 494 568 40,000 840 Level FlightAware Transoceanic
08:53PM 56.5167 -177.4000 252° West 495 570 41,000  Climbing Anchorage Center
08:54PM 56.4683 -177.6946 251° West 490 564 40,000 -540 Descending FlightAware Transoceanic
08:55PM 56.4254 -177.9252 251° West 490 564 40,000  Level FlightAware Transoceanic
08:56PM 56.3821 -178.1553 251° West 490 564 40,000  Level FlightAware Transoceanic
08:57PM 56.3384 -178.3849 251° West 490 564 40,000  Level FlightAware Transoceanic
08:58PM 56.2942 -178.6140 251° West 490 564 40,000 480 Level FlightAware Transoceanic
08:59PM 56.2492 -178.8194 251° West 495 570 41,000 480 Climbing FlightAware Transoceanic
09:00PM 56.2030 -179.0541 250° West 495 570 41,000  Level FlightAware Transoceanic
09:01PM 56.1564 -179.2881 250° West 495 570 41,000  Level FlightAware Transoceanic
09:02PM 56.1094 -179.5216 250° West 495 570 41,000  Level FlightAware Transoceanic
09:03PM 56.0619 -179.7545 250° West 495 570 41,000  Level FlightAware Transoceanic
09:03PM 56.0833 -179.6667 250° West 496 571 41,000  Level Anchorage Center
09:04PM 56.0140 -179.9868 250° West 495 570 41,000  Level FlightAware Transoceanic
09:05PM 55.9657 179.7814 249° West 495 570 41,000  Level FlightAware Transoceanic
09:06PM 55.9169 179.5502 249° West 495 570 41,000  Level FlightAware Transoceanic
09:07PM 55.8677 179.3196 249° West 495 570 41,000  Level FlightAware Transoceanic
09:08PM 55.8180 179.0896 249° West 495 570 41,000  Level FlightAware Transoceanic
09:09PM 55.7456 178.7461 249° West 496 571 41,000  Level FlightAware Transoceanic
09:10PM 55.6957 178.5216 248° West 496 571 41,000  Level FlightAware Transoceanic
09:11PM 55.6454 178.2977 248° West 496 571 41,000  Level FlightAware Transoceanic
09:12PM 55.5947 178.0743 248° West 496 571 41,000  Level FlightAware Transoceanic
09:12PM 55.6167 178.1500 248° West 493 567 41,000  Level Anchorage Center
09:13PM 55.5436 177.8516 248° West 496 571 41,000  Level FlightAware Transoceanic
09:14PM 55.4920 177.6294 248° West 496 571 41,000  Level FlightAware Transoceanic
09:15PM 55.4401 177.4078 247° West 496 571 41,000  Level FlightAware Transoceanic
09:15PM 55.4500 177.4500 246° West 490 564 41,000  Level Anchorage Center
09:16PM 55.3878 177.1868 247° West 496 571 41,000  Level FlightAware Transoceanic
09:16PM 55.4000 177.2500 246° West 490 564 41,000  Level Anchorage Center
09:17PM 55.3351 176.9664 247° West 496 571 41,000  Level FlightAware Transoceanic
09:17PM 55.3333 177.0000 245° Southwest 490 564 41,000  Level Anchorage Center
09:18PM 55.2993 176.8031 247° West 493 567 41,000  Level FlightAware Transoceanic
09:18PM 55.2833 176.7667 249° West 490 564 41,000  Level Anchorage Center
09:19PM 55.2449 176.5807 247° West 493 567 41,000  Level FlightAware Transoceanic
09:19PM 55.2333 176.5667 246° West 490 564 41,000  Level Anchorage Center
09:20PM 55.1902 176.3589 247° West 493 567 41,000  Level FlightAware Transoceanic
09:20PM 55.1667 176.3333 244° Southwest 490 564 41,000  Level Anchorage Center
09:21PM 55.1351 176.1378 246° West 493 567 41,000  Level FlightAware Transoceanic
09:21PM 55.1333 176.1333 254° West 490 564 41,000  Level Anchorage Center
09:22PM 55.0667 175.9000 244° Southwest 500 575 41,000  Level Anchorage Center
09:23PM 55.0167 175.7000 247° West 490 564 41,000  Level Anchorage Center
09:24PM 54.9500 175.4667 244° Southwest 490 564 41,000  Level Anchorage Center
09:25PM 54.9167 175.2833 253° West 490 564 41,000  Level Anchorage Center
09:26PM 54.8500 175.0333 245° Southwest 500 575 41,000  Level Anchorage Center
09:27PM 54.7833 174.8000 244° Southwest 500 575 41,000  Level Anchorage Center
09:28PM 54.7333 174.6167 245° Southwest 500 575 41,000  Level Anchorage Center
09:29PM 54.6667 174.3833 244° Southwest 490 564 41,000  Level Anchorage Center
09:30PM 54.6167 174.1833 247° West 500 575 41,000  Level Anchorage Center
09:31PM 54.5500 173.9500 244° Southwest 490 564 41,000  Level Anchorage Center
09:32PM 54.5000 173.7667 245° Southwest 490 564 41,000  Level Anchorage Center
09:33PM 54.4500 173.5500 248° West 490 564 41,000  Level Anchorage Center
09:34PM 54.3833 173.3000 245° Southwest 500 575 41,000  Level Anchorage Center
09:35PM 54.3167 173.1167 238° Southwest 500 575 41,000  Level Anchorage Center
09:36PM 54.2500 172.8833 244° Southwest 520 598 41,000  Level Anchorage Center
09:37PM 54.2000 172.7167 243° Southwest 480 552 41,000  Level Anchorage Center
09:38PM 54.1333 172.5000 242° Southwest 480 552 41,000  Level Anchorage Center
09:39PM 54.0500 172.3333 230° Southwest 490 564 41,000  Level Anchorage Center
09:40PM 53.9667 172.1333 235° Southwest 500 575 41,000  Level Anchorage Center
09:41PM 53.8833 171.9167 237° Southwest 490 564 41,000  Level Anchorage Center
09:42PM 53.8167 171.7500 236° Southwest 500 575 41,000  Level Anchorage Center
09:43PM 53.7333 171.5500 235° Southwest 490 564 41,000  Level Anchorage Center
09:44PM 53.6500 171.3833 230° Southwest 490 564 41,000  Level Anchorage Center
09:45PM 53.5667 171.1833 235° Southwest 490 564 41,000  Level Anchorage Center
09:46PM 53.5000 171.0333 233° Southwest 470 541 41,000  Level Anchorage Center
09:47PM 53.4167 170.8333 235° Southwest 490 564 41,000  Level Anchorage Center
09:48PM 53.3500 170.6667 236° Southwest 490 564 41,000  Level Anchorage Center
09:49PM 53.2500 170.4667 230° Southwest 490 564 41,000  Level Anchorage Center
09:50PM 53.1667 170.2667 235° Southwest 490 564 41,000  Level Anchorage Center
09:51PM 53.1000 170.1167 234° Southwest 480 552 41,000  Level Anchorage Center
09:52PM 53.0167 169.9167 235° Southwest 490 564 41,000  Level Anchorage Center
09:53PM 52.9500 169.7667 234° Southwest 490 564 41,000  Level Anchorage Center
09:54PM 52.8833 169.5500 243° Southwest 480 552 41,000  Level Anchorage Center
09:55PM 52.8167 169.3833 237° Southwest 500 575 41,000  Level Anchorage Center
09:56PM 52.7667 169.2167 244° Southwest 480 552 41,000  Level Anchorage Center
09:57PM 52.6833 168.9667 241° Southwest 490 564 41,000  Level Anchorage Center
09:58PM 52.6167 168.8000 237° Southwest 480 552 41,000  Level Anchorage Center
09:59PM 52.5500 168.6000 241° Southwest 480 552 41,000  Level Anchorage Center
10:00PM 52.4833 168.4333 237° Southwest 480 552 41,000  Level Anchorage Center
10:01PM 52.4167 168.2333 241° Southwest 470 541 41,000  Level Anchorage Center
10:02PM 52.3667 168.0667 244° Southwest 460 529 41,000  Level Anchorage Center
10:03PM 52.3000 167.8667 241° Southwest 460 529 41,000  Level Anchorage Center
10:04PM 52.2333 167.7167 234° Southwest 460 529 41,000  Level Anchorage Center
10:05PM 52.1667 167.5167 242° Southwest 460 529 41,000  Level Anchorage Center
10:08PM 52.0583 167.2229 239° Southwest  Level FlightAware Approximate
10:10PM 51.8833 166.7167 239° Southwest 456 525 41,000  Level Anchorage Center
10:15PM 51.5999 166.0167 239° Southwest  Level FlightAware Approximate
10:16PM 51.5047 165.7322 238° Southwest 456 525 41,000  Level FlightAware Transoceanic
10:16PM 51.4333 165.5500 238° Southwest 455 524 41,000  Level Anchorage Center
10:17PM 51.4408 165.5697 238° Southwest 456 525 41,000  Level FlightAware Transoceanic
10:18PM 51.3767 165.4077 238° Southwest 456 525 41,000  Level FlightAware Transoceanic
10:19PM 51.3124 165.2461 237° Southwest 456 525 41,000  Level FlightAware Transoceanic
10:19PM 51.2333 165.0833 237° Southwest 447 514 41,000  Level Anchorage Center
10:20PM 51.2478 165.0850 237° Southwest 456 525 41,000  Level FlightAware Transoceanic
10:21PM 51.1830 164.9243 237° Southwest 456 525 41,000  Level FlightAware Transoceanic
10:22PM 51.1180 164.7641 237° Southwest 456 525 41,000  Level FlightAware Transoceanic
10:23PM 50.9935 164.4595 237° Southwest 455 524 41,000  Level FlightAware Transoceanic
10:23PM 50.9500 164.3833 237° Southwest 439 505 41,000  Level Anchorage Center
10:24PM 50.9299 164.3054 237° Southwest 455 524 41,000  Level FlightAware Transoceanic
10:25PM 50.8660 164.1517 237° Southwest 455 524 41,000  Level FlightAware Transoceanic
10:26PM 50.7919 164.0013 237° Southwest 447 514 41,000  Level FlightAware Transoceanic
10:27PM 50.7280 163.8483 236° Southwest 447 514 41,000  Level FlightAware Transoceanic
10:28PM 50.6639 163.6959 236° Southwest 447 514 41,000  Level FlightAware Transoceanic
10:29PM 50.5996 163.5438 236° Southwest 447 514 41,000  Level FlightAware Transoceanic
10:29PM 50.6000 163.5333 236° Southwest 439 505 41,000  Level Anchorage Center
10:30PM 50.4945 163.2967 236° Southwest 439 505 41,000  Level FlightAware Transoceanic
10:31PM 50.4286 163.1432 236° Southwest 439 505 41,000  Level FlightAware Transoceanic
10:32PM 50.3625 162.9901 236° Southwest 439 505 41,000  Level FlightAware Transoceanic
10:33PM 50.2962 162.8374 236° Southwest 439 505 41,000  Level FlightAware Transoceanic
10:34PM 50.2298 162.6852 236° Southwest 439 505 41,000  Level FlightAware Transoceanic
10:35PM 50.1930 162.5934 235° Southwest 439 505 41,000  Level FlightAware Transoceanic
10:36PM 50.1244 162.4383 235° Southwest 439 505 41,000  Level FlightAware Transoceanic
10:37PM 50.0556 162.2837 235° Southwest 439 505 41,000  Level FlightAware Transoceanic
10:38PM 49.9866 162.1295 235° Southwest 439 505 41,000  Level FlightAware Transoceanic
10:38PM 49.9333 162.0167 235° Southwest 427 491 41,000  Level Anchorage Center
10:39PM 49.9175 161.9757 235° Southwest 439 505 41,000  Level FlightAware Transoceanic
10:40PM 49.8481 161.8224 235° Southwest 439 505 41,000  Level FlightAware Transoceanic
10:41PM 49.7785 161.6696 235° Southwest 439 505 41,000  Level FlightAware Transoceanic
10:42PM 49.7087 161.5171 235° Southwest 439 505 41,000  Level FlightAware Transoceanic
10:43PM 49.6387 161.3651 235° Southwest 439 505 41,000  Level FlightAware Transoceanic
10:44PM 49.5685 161.2136 234° Southwest 439 505 41,000  Level FlightAware Transoceanic
10:45PM 49.4710 161.0071 234° Southwest 427 491 41,000  Level FlightAware Transoceanic
10:45PM 49.4833 161.0333 234° Southwest 440 506 41,000  Level Anchorage Center
10:46PM 49.4042 160.8645 234° Southwest 427 491 41,000  Level FlightAware Transoceanic
10:47PM 49.3373 160.7222 234° Southwest 427 491 41,000  Level FlightAware Transoceanic
10:48PM 49.2702 160.5803 234° Southwest 427 491 41,000  Level FlightAware Transoceanic
10:48PM 49.2667 160.5667 234° Southwest 447 514 41,000  Level Anchorage Center
10:49PM 49.2029 160.4388 234° Southwest 427 491 41,000  Level FlightAware Transoceanic
10:50PM 49.1354 160.2977 234° Southwest 427 491 41,000  Level FlightAware Transoceanic
10:51PM 49.0696 160.1607 234° Southwest 440 506 41,000  Level FlightAware Transoceanic
10:52PM 49.0000 160.0167 233° Southwest 440 506 41,000  Level FlightAware Transoceanic
10:53PM 48.9342 159.8824 233° Southwest 440 506 41,000  Level FlightAware Transoceanic
10:54PM 48.8682 159.7484 233° Southwest 447 514 41,000  Level FlightAware Transoceanic
10:55PM 48.8021 159.6149 233° Southwest 447 514 41,000  Level FlightAware Transoceanic
10:56PM 48.7358 159.4816 233° Southwest 447 514 41,000  Level FlightAware Transoceanic
10:57PM 48.6694 159.3487 233° Southwest 447 514 41,000  Level FlightAware Transoceanic
10:58PM 48.6028 159.2162 233° Southwest 447 514 41,000  Level FlightAware Transoceanic
10:59PM 48.5361 159.0840 233° Southwest 447 514 41,000  Level FlightAware Transoceanic
11:00PM 48.4692 158.9522 233° Southwest 447 514 41,000  Level FlightAware Transoceanic
11:01PM 48.4022 158.8207 232° Southwest 447 514 41,000  Level FlightAware Transoceanic
11:02PM 48.3350 158.6896 232° Southwest 447 514 41,000  Level FlightAware Transoceanic
11:03PM 48.2677 158.5588 232° Southwest 447 514 41,000  Level FlightAware Transoceanic
11:04PM 48.2002 158.4283 232° Southwest 447 514 41,000  Level FlightAware Transoceanic
11:05PM 48.1325 158.2982 232° Southwest 447 514 41,000  Level FlightAware Transoceanic
11:06PM 48.0648 158.1685 232° Southwest 447 514 41,000  Level FlightAware Transoceanic
11:07PM 47.9968 158.0390 232° Southwest 447 514 41,000  Level FlightAware Transoceanic
11:08PM 47.9288 157.9099 232° Southwest 447 514 41,000  Level FlightAware Transoceanic
11:09PM 47.8606 157.7812 232° Southwest 447 514 41,000  Level FlightAware Transoceanic
11:10PM 47.7922 157.6528 232° Southwest 447 514 41,000  Level FlightAware Transoceanic
11:11PM 47.7237 157.5247 231° Southwest 447 514 41,000  Level FlightAware Transoceanic
11:12PM 47.6551 157.3970 231° Southwest 447 514 41,000  Level FlightAware Transoceanic
11:13PM 47.5863 157.2696 231° Southwest 447 514 41,000  Level FlightAware Transoceanic
11:14PM 47.5174 157.1426 231° Southwest 447 514 41,000  Level FlightAware Transoceanic
11:15PM 47.4483 157.0158 231° Southwest 447 514 41,000  Level FlightAware Transoceanic
11:16PM 47.3791 156.8894 231° Southwest 447 514 41,000  Level FlightAware Transoceanic
11:17PM 47.3098 156.7634 231° Southwest 447 514 41,000  Level FlightAware Transoceanic
11:18PM 47.2403 156.6376 231° Southwest 447 514 41,000  Level FlightAware Transoceanic
11:19PM 47.1707 156.5123 231° Southwest 447 514 41,000  Level FlightAware Transoceanic
11:20PM 47.1010 156.3872 231° Southwest 447 514 41,000  Level FlightAware Transoceanic
11:21PM 47.0311 156.2624 231° Southwest 447 514 41,000  Level FlightAware Transoceanic
11:22PM 46.9611 156.1380 230° Southwest 447 514 41,000  Level FlightAware Transoceanic
11:23PM 46.8909 156.0139 230° Southwest 447 514 41,000  Level FlightAware Transoceanic
11:24PM 46.8206 155.8902 230° Southwest 447 514 41,000  Level FlightAware Transoceanic
11:25PM 46.7502 155.7667 230° Southwest 447 514 41,000  Level FlightAware Transoceanic
11:26PM 46.6796 155.6436 230° Southwest 447 514 41,000  Level FlightAware Transoceanic
11:27PM 46.6090 155.5208 230° Southwest 447 514 41,000  Level FlightAware Transoceanic
11:28PM 46.5382 155.3983 230° Southwest 447 514 41,000  Level FlightAware Transoceanic
11:29PM 46.4672 155.2762 230° Southwest 447 514 41,000  Level FlightAware Transoceanic
11:30PM 46.3961 155.1543 230° Southwest 447 514 41,000  Level FlightAware Transoceanic
11:31PM 46.3249 155.0328 230° Southwest 447 514 41,000  Level FlightAware Transoceanic
11:32PM 46.2536 154.9116 230° Southwest 447 514 41,000  Level FlightAware Transoceanic
11:33PM 46.1821 154.7907 229° Southwest 447 514 41,000  Level FlightAware Transoceanic
11:34PM 46.1105 154.6701 229° Southwest 447 514 41,000  Level FlightAware Transoceanic
11:35PM 46.0388 154.5499 229° Southwest 447 514 41,000  Level FlightAware Transoceanic
11:36PM 45.9670 154.4299 229° Southwest 447 514 41,000  Level FlightAware Transoceanic
11:37PM 45.8950 154.3103 229° Southwest 447 514 41,000  Level FlightAware Transoceanic
11:38PM 45.8229 154.1909 229° Southwest 447 514 41,000  Level FlightAware Transoceanic
11:39PM 45.7507 154.0719 229° Southwest 447 514 41,000  Level FlightAware Transoceanic
11:40PM 45.6784 153.9532 229° Southwest 447 514 41,000  Level FlightAware Transoceanic
11:41PM 45.6059 153.8348 229° Southwest 447 514 41,000  Level FlightAware Transoceanic
11:42PM 45.5143 153.7135 223° Southwest  Level FlightAware Approximate
11:43PM 45.5044 153.6965 229° Southwest  Level FlightAware Approximate
11:44PM 45.4222 153.5624 229° Southwest  Level FlightAware Approximate
11:45PM 45.3399 153.4287 229° Southwest  Level FlightAware Approximate
11:46PM 45.2574 153.2954 229° Southwest  Level FlightAware Approximate
11:47PM 45.1748 153.1625 229° Southwest  Level FlightAware Approximate
11:48PM 45.0920 153.0299 229° Southwest  Level FlightAware Approximate
11:49PM 45.0091 152.8977 228° Southwest  Level FlightAware Approximate
11:50PM 44.9252 152.7669 228° Southwest  Level FlightAware Approximate
11:51PM 44.8412 152.6366 228° Southwest  Level FlightAware Approximate
11:52PM 44.7569 152.5066 228° Southwest  Level FlightAware Approximate
11:53PM 44.6726 152.3770 228° Southwest  Level FlightAware Approximate
11:54PM 44.5881 152.2478 227° Southwest  Level FlightAware Approximate
11:55PM 44.5034 152.1190 227° Southwest  Level FlightAware Approximate
11:56PM 44.4186 151.9906 227° Southwest  Level FlightAware Approximate
11:57PM 44.3336 151.8625 227° Southwest  Level FlightAware Approximate
11:58PM 44.2486 151.7348 227° Southwest  Level FlightAware Approximate
11:59PM 44.1633 151.6074 227° Southwest  Level FlightAware Approximate
12:00AM 44.0780 151.4805 227° Southwest  Level FlightAware Approximate
12:01AM 43.9925 151.3539 227° Southwest  Level FlightAware Approximate
12:02AM 43.9067 151.2277 227° Southwest  Level FlightAware Approximate
12:03AM 43.8207 151.1022 226° Southwest  Level FlightAware Approximate
12:04AM 43.7345 150.9770 226° Southwest  Level FlightAware Approximate
12:05AM 43.6482 150.8522 226° Southwest  Level FlightAware Approximate
12:06AM 43.5617 150.7277 226° Southwest  Level FlightAware Approximate
12:07AM 43.4751 150.6036 226° Southwest  Level FlightAware Approximate
12:08AM 43.3898 150.4819 226° Southwest  Level FlightAware Approximate
12:09AM 43.3043 150.3604 226° Southwest  Level FlightAware Approximate
12:10AM 43.2187 150.2394 226° Southwest  Level FlightAware Approximate
12:11AM 43.1330 150.1186 226° Southwest  Level FlightAware Approximate
12:12AM 43.0472 149.9982 226° Southwest  Level FlightAware Approximate
12:13AM 42.9612 149.8782 226° Southwest  Level FlightAware Approximate
12:13AM 42.9890 149.9140 226° Southwest 413 475 41,000  Level FlightAware
12:13AM 42.9460 149.8540 226° Southwest 413 475 41,000  Level FlightAware
12:14AM 42.8751 149.7584 226° Southwest  Level FlightAware Approximate
12:14AM 42.9030 149.7950 225° Southwest 413 475 41,000  Level FlightAware
12:15AM 42.8220 149.6820 226° Southwest 415 478 41,000  Level FlightAware
12:16AM 42.7570 149.5910 226° Southwest 414 476 41,000  Level FlightAware
12:16AM 42.7310 149.5560 225° Southwest 414 476 41,000  Level FlightAware
12:17AM 42.6850 149.4930 225° Southwest 414 476 41,000  Level FlightAware
12:18AM 42.6150 149.3970 225° Southwest 414 476 41,000  Level FlightAware
12:18AM 42.5870 149.3600 224° Southwest 414 476 41,000  Level FlightAware
12:19AM 42.5460 149.3040 225° Southwest 414 476 41,000  Level FlightAware
12:19AM 42.5030 149.2460 225° Southwest 414 476 41,000  Level FlightAware
12:20AM 42.4480 149.1710 225° Southwest 414 476 41,000  Level FlightAware
12:21AM 42.3390 149.0190 226° Southwest 416 479 41,000  Level FlightAware
12:22AM 42.2660 148.9210 225° Southwest 416 479 41,000  Level FlightAware
12:23AM 42.1990 148.8290 226° Southwest 412 474 41,000  Level FlightAware
12:24AM 42.1150 148.7170 225° Southwest 410 472 41,000  Level FlightAware
12:24AM 42.0760 148.6640 225° Southwest 409 471 41,000  Level FlightAware
12:25AM 42.0220 148.5920 225° Southwest 409 471 41,000  Level FlightAware
12:26AM 41.9520 148.4980 225° Southwest 408 470 41,000  Level FlightAware
12:26AM 41.9100 148.4440 224° Southwest 407 468 41,000  Level FlightAware
12:27AM 41.8330 148.3400 225° Southwest 409 471 41,000  Level FlightAware
12:28AM 41.7970 148.2930 224° Southwest 410 472 41,000  Level FlightAware
12:28AM 41.7440 148.2230 225° Southwest 410 472 41,000  Level FlightAware
12:29AM 41.6610 148.1150 224° Southwest 405 466 41,000  Level FlightAware
12:30AM 41.5780 148.0090 224° Southwest 407 468 41,000  Level FlightAware
12:31AM 41.4970 147.9050 224° Southwest 406 467 41,000  Level FlightAware
12:32AM 41.4480 147.8420 224° Southwest 405 466 41,000  Level FlightAware
12:32AM 41.4000 147.7810 224° Southwest 405 466 41,000  Level FlightAware
12:34AM 41.3070 147.6630 224° Southwest 404 465 41,000  Level FlightAware
12:34AM 41.2630 147.6070 224° Southwest 404 465 41,000  Level FlightAware
12:35AM 41.2150 147.5460 224° Southwest 405 466 41,000  Level FlightAware
12:36AM 41.1400 147.4510 224° Southwest 405 466 41,000  Level FlightAware
12:36AM 41.0990 147.3990 224° Southwest 407 468 41,000  Level FlightAware
12:37AM 41.0560 147.3460 223° Southwest 408 470 41,000  Level FlightAware
12:38AM 40.9730 147.2410 224° Southwest 409 471 41,000  Level FlightAware
12:38AM 40.9390 147.1980 224° Southwest 410 472 41,000  Level FlightAware
12:39AM 40.8900 147.1370 223° Southwest 417 480 41,000  Level FlightAware
12:39AM 40.8130 147.0420 223° Southwest 418 481 41,000  Level FlightAware
12:40AM 40.7360 146.9470 223° Southwest 418 481 41,000  Level FlightAware
12:41AM 40.6710 146.8660 223° Southwest 418 481 41,000  Level FlightAware
12:42AM 40.6080 146.7890 223° Southwest 416 479 41,000  Level FlightAware
12:42AM 40.5660 146.7370 223° Southwest 415 478 41,000  Level FlightAware
12:43AM 40.5030 146.6590 223° Southwest 408 470 41,000  Level FlightAware
12:44AM 40.4190 146.5560 223° Southwest 414 476 41,000  Level FlightAware
12:45AM 40.3700 146.4970 223° Southwest 414 476 41,000  Level FlightAware
12:46AM 40.2850 146.3940 223° Southwest 415 478 41,000  Level FlightAware
12:47AM 40.2080 146.3000 223° Southwest 417 480 41,000  Level FlightAware
12:47AM 40.1530 146.2340 223° Southwest 418 481 41,000  Level FlightAware
12:48AM 40.0870 146.1540 223° Southwest 419 482 41,000  Level FlightAware
12:49AM 40.0300 146.0860 222° Southwest 419 482 41,000  Level FlightAware
12:49AM 39.9800 146.0250 223° Southwest 419 482 41,000  Level FlightAware
12:50AM 39.8950 145.9240 222° Southwest 420 483 41,000  Level FlightAware
12:51AM 39.8680 145.8910 223° Southwest 419 482 41,000  Level FlightAware
12:52AM 39.7750 145.7820 222° Southwest 419 482 41,000  Level FlightAware
12:52AM 39.7450 145.7470 222° Southwest 419 482 41,000  Level FlightAware
12:53AM 39.6710 145.6600 222° Southwest 419 482 41,000  Level FlightAware
12:54AM 39.6250 145.6070 222° Southwest 419 482 41,000  Level FlightAware
12:55AM 39.5520 145.5210 222° Southwest 419 482 41,000  Level FlightAware
12:56AM 39.4930 145.4520 222° Southwest 419 482 41,000  Level FlightAware
12:57AM 39.3470 145.2750 223° Southwest 413 475 41,000  Level FlightAware
12:57AM 39.3240 145.2490 221° Southwest 413 475 41,000  Level FlightAware
12:58AM 39.2330 145.1430 222° Southwest 413 475 41,000  Level FlightAware
12:59AM 39.1890 145.0910 222° Southwest 413 475 41,000  Level FlightAware
12:59AM 39.1300 145.0230 222° Southwest 414 476 41,000  Level FlightAware
01:00AM 39.0570 144.9390 222° Southwest 414 476 41,000  Level FlightAware
01:01AM 39.0280 144.9050 222° Southwest 414 476 41,000  Level FlightAware
01:01AM 38.9840 144.8550 221° Southwest 414 476 41,000  Level FlightAware
01:02AM 38.9100 144.7830 217° Southwest 413 475 41,000  Level FlightAware
01:03AM 38.8210 144.7030 215° Southwest 414 476 41,000  Level FlightAware
01:03AM 38.7560 144.6450 215° Southwest 414 476 41,000  Level FlightAware
01:04AM 38.6830 144.5800 215° Southwest 414 476 41,000  Level FlightAware
01:05AM 38.6250 144.5280 215° Southwest 415 478 41,000  Level FlightAware
01:06AM 38.5320 144.4460 215° Southwest 413 475 41,000  Level FlightAware
01:06AM 38.5000 144.4180 214° Southwest 412 474 41,000  Level FlightAware
01:07AM 38.4370 144.3620 215° Southwest 413 475 41,000  Level FlightAware
01:07AM 38.3890 144.3190 215° Southwest 413 475 41,000  Level FlightAware
01:08AM 38.3430 144.2790 214° Southwest 414 476 41,000  Level FlightAware
01:08AM 38.2850 144.2280 215° Southwest 414 476 41,000  Level FlightAware
01:09AM 38.2380 144.1860 215° Southwest 414 476 41,000  Level FlightAware
01:09AM 38.1810 144.1360 215° Southwest 415 478 41,000  Level FlightAware
01:10AM 38.1090 144.0740 214° Southwest 414 476 41,000  Level FlightAware
01:11AM 38.0300 144.0040 215° Southwest 415 478 41,000  Level FlightAware
01:11AM 37.9880 143.9680 214° Southwest 415 478 41,000  Level FlightAware
01:12AM 37.9250 143.9130 215° Southwest 411 473 41,000  Level FlightAware
01:13AM 37.8210 143.8230 214° Southwest 409 471 41,000  Level FlightAware
01:14AM 37.7820 143.7890 215° Southwest 414 476 41,000  Level FlightAware
01:14AM 37.7260 143.7410 214° Southwest 413 475 41,000  Level FlightAware
01:15AM 37.6630 143.6870 214° Southwest 413 475 41,000  Level FlightAware
01:15AM 37.6160 143.6450 215° Southwest 414 476 41,000  Level FlightAware
01:16AM 37.5620 143.5990 214° Southwest 412 474 41,000  Level FlightAware
01:17AM 37.4680 143.5180 214° Southwest 411 473 41,000  Level FlightAware
01:17AM 37.4270 143.4830 214° Southwest 411 473 41,000  Level FlightAware
01:18AM 37.3290 143.3980 215° Southwest 411 473 41,000  Level FlightAware
01:19AM 37.2710 143.3480 214° Southwest 412 474 41,000  Level FlightAware
01:20AM 37.2150 143.3000 214° Southwest 412 474 41,000  Level FlightAware
01:20AM 37.1820 143.2730 213° Southwest 413 475 41,000  Level FlightAware
01:21AM 37.1180 143.2180 214° Southwest 411 473 41,000  Level FlightAware
01:21AM 37.0690 143.1760 214° Southwest 411 473 41,000  Level FlightAware
01:22AM 36.9720 143.0930 214° Southwest 410 472 41,000  Level FlightAware
01:23AM 36.8930 143.0260 214° Southwest 410 472 41,000  Level FlightAware
01:24AM 36.8280 142.9710 214° Southwest 412 474 41,000  Level FlightAware
01:24AM 36.7660 142.9190 214° Southwest 412 474 41,000  Level FlightAware
01:25AM 36.6580 142.8280 214° Southwest 411 473 41,000 -420 Level FlightAware
01:26AM 36.5620 142.7480 214° Southwest 411 473 40,200 -1,320 Descending FlightAware
01:27AM 36.4990 142.6950 214° Southwest 410 472 38,800 -2,100 Descending FlightAware
01:28AM 36.4110 142.6220 214° Southwest 412 474 36,900 -2,340 Descending FlightAware
01:29AM 36.3540 142.5750 214° Southwest 413 475 35,400 -2,460 Descending FlightAware
01:29AM 36.3060 142.5350 214° Southwest 423 487 34,200 -2,220 Descending FlightAware
01:30AM 36.2490 142.4880 214° Southwest 426 490 33,000 -2,160 Descending FlightAware
01:30AM 36.1910 142.4390 214° Southwest 426 490 31,800 -2,040 Descending FlightAware
01:31AM 36.1110 142.3730 214° Southwest 426 490 30,100 -2,160 Descending FlightAware
01:32AM 36.0520 142.3240 214° Southwest 408 470 28,800 -2,220 Descending FlightAware
01:32AM 36.0050 142.2860 213° Southwest 403 464 27,800 -1,920 Descending FlightAware
01:33AM 35.9550 142.2450 214° Southwest 383 441 26,700 -2,520 Descending FlightAware
01:34AM 35.8720 142.1760 214° Southwest 343 395 23,900 -2,520 Descending FlightAware
01:34AM 35.8160 142.1310 213° Southwest 346 398 22,600 -1,800 Descending FlightAware
01:35AM 35.7690 142.0920 214° Southwest 330 380 21,700 -1,500 Descending FlightAware
01:36AM 35.7220 142.0540 213° Southwest 333 383 20,800 -1,500 Descending FlightAware
01:36AM 35.6790 142.0190 213° Southwest 331 381 19,900 -1,440 Descending FlightAware
01:37AM 35.6200 141.9710 213° Southwest 331 381 18,800 -1,440 Descending FlightAware
01:37AM 35.5970 141.9380 229° Southwest 325 374 18,200 -1,500 Descending FlightAware
01:38AM 35.5890 141.8760 261° West 325 374 17,400 -1,500 Descending FlightAware
01:39AM 35.5840 141.7920 266° West 320 368 16,300 -1,080 Descending FlightAware
01:39AM 35.5810 141.7260 267° West 295 339 16,000 -240 Descending FlightAware
01:40AM 35.5770 141.6680 265° West 291 335 16,000  Level FlightAware
01:41AM 35.5740 141.6000 267° West 292 336 16,000  Level FlightAware
01:42AM 35.6240 141.5330 313° West 331 381 16,000  Level FlightAware
01:42AM 35.6830 141.5210 351° North 324 373 16,000  Level FlightAware
01:43AM 35.7830 141.5000 350° North 324 373 16,000  Level FlightAware
01:44AM 35.8250 141.4910 350° North 331 381 16,000 -600 Level FlightAware
01:44AM 35.8700 141.4810 350° North 329 379 15,400 -960 Descending FlightAware
01:45AM 35.9220 141.4500 334° Northwest 314 361 15,000 -780 Descending FlightAware
01:46AM 35.9840 141.4030 328° Northwest 315 362 14,300 -1,020 Descending FlightAware
01:47AM 36.0260 141.3520 316° Northwest 293 337 13,500 -900 Descending FlightAware
01:47AM 36.0370 141.3080 287° West 276 318 13,300 -960 Descending FlightAware
01:48AM 36.0320 141.2390 265° West 270 311 12,400 -780 Descending FlightAware
01:48AM 36.0130 141.1870 246° West 273 314 12,300 -120 Descending FlightAware
01:49AM 35.9960 141.1400 246° West 275 316 12,300 -480 Level FlightAware
01:49AM 35.9780 141.0920 245° Southwest 275 316 11,800 -1,020 Descending FlightAware
01:50AM 35.9650 141.0550 247° West 282 325 11,300 -1,020 Descending FlightAware
01:50AM 35.9370 141.0060 235° Southwest 287 330 10,800 -660 Descending FlightAware
01:51AM 35.9050 140.9540 233° Southwest 286 329 10,500 -600 Descending FlightAware
01:52AM 35.8850 140.9210 233° Southwest 276 318 10,200 -960 Descending FlightAware
01:52AM 35.8420 140.8940 207° Southwest 289 333 9,500 -660 Descending FlightAware
01:53AM 35.7830 140.8850 187° South 261 300 9,300 -180 Descending FlightAware
01:53AM 35.7520 140.8790 189° South 259 298 9,300 -240 Level FlightAware
01:54AM 35.7080 140.8720 187° South 248 285 9,100 -720 Descending FlightAware
01:54AM 35.6780 140.8670 188° South 258 297 8,600 -960 Descending FlightAware
01:55AM 35.6280 140.8600 186° South 240 276 8,000 -720 Descending FlightAware
01:56AM 35.5890 140.8550 186° South 224 258 7,700 -720 Descending FlightAware
01:56AM 35.5540 140.8500 187° South 229 264 7,200 -1,080 Descending FlightAware
01:57AM 35.5240 140.8450 188° South 229 264 6,700 -840 Descending FlightAware
01:57AM 35.4930 140.8160 217° Southwest 210 242 6,300 -300 Descending FlightAware
01:58AM 35.4680 140.7760 233° Southwest 207 238 6,300 -360 Level FlightAware
01:59AM 35.4560 140.7390 248° West 203 234 5,900 -660 Descending FlightAware
01:59AM 35.4410 140.6970 246° West 190 219 5,500 -660 Descending FlightAware
02:00AM 35.4330 140.6730 248° West 186 214 5,200 -960 Descending FlightAware
02:00AM 35.4180 140.6290 247° West 182 209 4,400 -720 Descending FlightAware
02:01AM 35.4360 140.6100 319° Northwest 158 182 4,300 -120 Descending FlightAware
02:02AM 35.4560 140.5980 334° Northwest 152 175 4,300  Level FlightAware
02:02AM 35.4720 140.5860 329° Northwest 150 173 4,300  Level FlightAware
02:02AM 35.4890 140.5740 330° Northwest 150 173 4,300  Level FlightAware
02:03AM 35.5100 140.5590 330° Northwest 150 173 4,300  Level FlightAware
02:03AM 35.5260 140.5470 329° Northwest 150 173 4,300  Level FlightAware
02:04AM 35.5490 140.5300 329° Northwest 150 173 4,300  Level FlightAware
02:05AM 35.5740 140.5120 330° Northwest 132 152 4,300 -360 Level FlightAware
02:05AM 35.5930 140.4990 331° Northwest 131 151 3,900 -720 Descending FlightAware
02:06AM 35.6110 140.4860 330° Northwest 134 154 3,500 -840 Descending FlightAware
02:06AM 35.6310 140.4720 330° Northwest 134 154 3,000 -840 Descending FlightAware
02:07AM 35.6540 140.4550 329° Northwest 137 158 2,500 -780 Descending FlightAware
02:08AM 35.6720 140.4420 330° Northwest 132 152 2,100 -840 Descending FlightAware
02:08AM 35.6930 140.4270 330° Northwest 130 150 1,600 -840 Descending FlightAware
02:09AM 35.7100 140.4150 330° Northwest 135 155 1,200 -720 Descending FlightAware
02:09AM 35.7300 140.4000 329° Northwest 138 159 800 -660 Descending FlightAware
02:10AM 35.7410 140.3930 333° Northwest 138 159 600 -300 Descending FlightAware
02:10AM 35.7520 140.3840 326° Northwest 138 159 600  Level FlightAware
02:14AM 35.7500 140.3833 253° West  Level FlightAware Approximate